sensor_id;sensor_type;location;lat;lon;timestamp;P1;durP1;ratioP1;P2;durP2;ratioP2
71888;SDS011;59762;49.998;14.858;2023-04-24T00:00:15;9.95;;;5.22;;
71888;SDS011;59762;49.998;14.858;2023-04-24T00:03:02;5.60;;;3.38;;
71888;SDS011;59762;49.998;14.858;2023-04-24T00:05:28;6.65;;;2.90;;
71888;SDS011;59762;49.998;14.858;2023-04-24T00:07:54;10.70;;;3.25;;
71888;SDS011;59762;49.998;14.858;2023-04-24T00:10:20;4.93;;;3.25;;
71888;SDS011;59762;49.998;14.858;2023-04-24T00:12:46;6.65;;;3.80;;
71888;SDS011;59762;49.998;14.858;2023-04-24T00:15:12;5.63;;;3.38;;
71888;SDS011;59762;49.998;14.858;2023-04-24T00:17:38;6.68;;;3.80;;
71888;SDS011;59762;49.998;14.858;2023-04-24T00:20:04;5.40;;;2.63;;
71888;SDS011;59762;49.998;14.858;2023-04-24T00:22:32;5.22;;;3.20;;
71888;SDS011;59762;49.998;14.858;2023-04-24T00:24:58;4.38;;;2.80;;
71888;SDS011;59762;49.998;14.858;2023-04-24T00:27:23;5.47;;;2.97;;
71888;SDS011;59762;49.998;14.858;2023-04-24T00:29:49;4.65;;;2.22;;
71888;SDS011;59762;49.998;14.858;2023-04-24T00:32:15;11.30;;;5.05;;
71888;SDS011;59762;49.998;14.858;2023-04-24T00:34:41;6.07;;;2.53;;
71888;SDS011;59762;49.998;14.858;2023-04-24T00:37:07;2.75;;;2.03;;
71888;SDS011;59762;49.998;14.858;2023-04-24T00:39:33;3.22;;;1.92;;
71888;SDS011;59762;49.998;14.858;2023-04-24T00:41:59;2.55;;;1.60;;
71888;SDS011;59762;49.998;14.858;2023-04-24T00:44:25;1.67;;;1.23;;
71888;SDS011;59762;49.998;14.858;2023-04-24T00:46:50;2.33;;;1.67;;
71888;SDS011;59762;49.998;14.858;2023-04-24T00:49:20;2.58;;;1.65;;
71888;SDS011;59762;49.998;14.858;2023-04-24T00:51:48;3.50;;;1.83;;
71888;SDS011;59762;49.998;14.858;2023-04-24T00:54:16;1.52;;;1.17;;
71888;SDS011;59762;49.998;14.858;2023-04-24T00:56:43;2.33;;;1.65;;
71888;SDS011;59762;49.998;14.858;2023-04-24T00:59:10;3.30;;;1.48;;
71888;SDS011;59762;49.998;14.858;2023-04-24T01:01:41;2.08;;;1.38;;
71888;SDS011;59762;49.998;14.858;2023-04-24T01:04:07;2.10;;;1.50;;
71888;SDS011;59762;49.998;14.858;2023-04-24T01:06:35;3.47;;;1.30;;
71888;SDS011;59762;49.998;14.858;2023-04-24T01:09:04;2.42;;;1.20;;
71888;SDS011;59762;49.998;14.858;2023-04-24T01:11:30;1.73;;;1.30;;
71888;SDS011;59762;49.998;14.858;2023-04-24T01:13:56;3.90;;;1.30;;
71888;SDS011;59762;49.998;14.858;2023-04-24T01:16:22;4.60;;;2.70;;
71888;SDS011;59762;49.998;14.858;2023-04-24T01:18:48;4.45;;;2.28;;
71888;SDS011;59762;49.998;14.858;2023-04-24T01:21:15;4.88;;;2.28;;
71888;SDS011;59762;49.998;14.858;2023-04-24T01:23:44;5.78;;;2.97;;
71888;SDS011;59762;49.998;14.858;2023-04-24T01:26:11;6.30;;;3.10;;
71888;SDS011;59762;49.998;14.858;2023-04-24T01:28:38;7.80;;;2.60;;
71888;SDS011;59762;49.998;14.858;2023-04-24T01:31:04;5.43;;;2.72;;
71888;SDS011;59762;49.998;14.858;2023-04-24T01:33:30;6.25;;;2.88;;
71888;SDS011;59762;49.998;14.858;2023-04-24T01:35:56;7.50;;;3.38;;
71888;SDS011;59762;49.998;14.858;2023-04-24T01:38:23;8.63;;;3.25;;
71888;SDS011;59762;49.998;14.858;2023-04-24T01:40:49;8.00;;;3.53;;
71888;SDS011;59762;49.998;14.858;2023-04-24T01:43:15;7.82;;;3.15;;
71888;SDS011;59762;49.998;14.858;2023-04-24T01:45:41;4.18;;;2.33;;
71888;SDS011;59762;49.998;14.858;2023-04-24T01:48:07;5.63;;;2.40;;
71888;SDS011;59762;49.998;14.858;2023-04-24T01:50:32;9.25;;;3.22;;
71888;SDS011;59762;49.998;14.858;2023-04-24T01:52:58;7.80;;;3.30;;
71888;SDS011;59762;49.998;14.858;2023-04-24T01:55:24;6.07;;;2.60;;
71888;SDS011;59762;49.998;14.858;2023-04-24T01:57:51;9.10;;;3.50;;
71888;SDS011;59762;49.998;14.858;2023-04-24T02:00:19;7.88;;;3.30;;
71888;SDS011;59762;49.998;14.858;2023-04-24T02:02:45;14.40;;;4.07;;
71888;SDS011;59762;49.998;14.858;2023-04-24T02:05:11;7.47;;;4.15;;
71888;SDS011;59762;49.998;14.858;2023-04-24T02:07:36;8.55;;;3.85;;
71888;SDS011;59762;49.998;14.858;2023-04-24T02:10:02;9.43;;;3.88;;
71888;SDS011;59762;49.998;14.858;2023-04-24T02:12:29;7.97;;;4.28;;
71888;SDS011;59762;49.998;14.858;2023-04-24T02:14:55;11.35;;;4.88;;
71888;SDS011;59762;49.998;14.858;2023-04-24T02:17:21;10.95;;;4.07;;
71888;SDS011;59762;49.998;14.858;2023-04-24T02:19:47;7.03;;;3.03;;
71888;SDS011;59762;49.998;14.858;2023-04-24T02:22:13;8.20;;;3.67;;
71888;SDS011;59762;49.998;14.858;2023-04-24T02:24:39;6.90;;;3.33;;
71888;SDS011;59762;49.998;14.858;2023-04-24T02:27:05;7.95;;;2.60;;
71888;SDS011;59762;49.998;14.858;2023-04-24T02:29:31;6.78;;;3.08;;
71888;SDS011;59762;49.998;14.858;2023-04-24T02:31:57;6.82;;;3.03;;
71888;SDS011;59762;49.998;14.858;2023-04-24T02:34:23;5.97;;;2.75;;
71888;SDS011;59762;49.998;14.858;2023-04-24T02:36:49;6.93;;;2.95;;
71888;SDS011;59762;49.998;14.858;2023-04-24T02:39:14;3.58;;;1.75;;
71888;SDS011;59762;49.998;14.858;2023-04-24T02:41:42;5.03;;;2.50;;
71888;SDS011;59762;49.998;14.858;2023-04-24T02:44:08;5.50;;;2.17;;
71888;SDS011;59762;49.998;14.858;2023-04-24T02:46:34;3.47;;;2.00;;
71888;SDS011;59762;49.998;14.858;2023-04-24T02:49:00;3.10;;;1.95;;
71888;SDS011;59762;49.998;14.858;2023-04-24T02:51:25;4.13;;;2.33;;
71888;SDS011;59762;49.998;14.858;2023-04-24T02:53:52;7.15;;;2.58;;
71888;SDS011;59762;49.998;14.858;2023-04-24T02:56:18;3.47;;;2.05;;
71888;SDS011;59762;49.998;14.858;2023-04-24T02:58:43;2.58;;;1.90;;
71888;SDS011;59762;49.998;14.858;2023-04-24T03:01:09;3.40;;;2.00;;
71888;SDS011;59762;49.998;14.858;2023-04-24T03:03:35;3.38;;;2.13;;
71888;SDS011;59762;49.998;14.858;2023-04-24T03:06:02;5.57;;;2.05;;
71888;SDS011;59762;49.998;14.858;2023-04-24T03:08:28;4.32;;;2.17;;
71888;SDS011;59762;49.998;14.858;2023-04-24T03:10:53;5.93;;;2.28;;
71888;SDS011;59762;49.998;14.858;2023-04-24T03:13:19;4.13;;;2.38;;
71888;SDS011;59762;49.998;14.858;2023-04-24T03:15:45;3.05;;;2.03;;
71888;SDS011;59762;49.998;14.858;2023-04-24T03:18:12;4.63;;;2.33;;
71888;SDS011;59762;49.998;14.858;2023-04-24T03:20:37;3.95;;;1.75;;
71888;SDS011;59762;49.998;14.858;2023-04-24T03:23:03;4.97;;;2.63;;
71888;SDS011;59762;49.998;14.858;2023-04-24T03:25:29;5.45;;;3.05;;
71888;SDS011;59762;49.998;14.858;2023-04-24T03:27:55;7.50;;;3.60;;
71888;SDS011;59762;49.998;14.858;2023-04-24T03:30:21;8.07;;;3.50;;
71888;SDS011;59762;49.998;14.858;2023-04-24T03:32:46;6.43;;;3.03;;
71888;SDS011;59762;49.998;14.858;2023-04-24T03:35:12;4.22;;;2.95;;
71888;SDS011;59762;49.998;14.858;2023-04-24T03:37:37;5.50;;;2.90;;
71888;SDS011;59762;49.998;14.858;2023-04-24T03:40:03;5.00;;;2.75;;
71888;SDS011;59762;49.998;14.858;2023-04-24T03:42:31;4.93;;;2.58;;
71888;SDS011;59762;49.998;14.858;2023-04-24T03:44:56;9.52;;;3.15;;
71888;SDS011;59762;49.998;14.858;2023-04-24T03:47:22;15.95;;;5.13;;
71888;SDS011;59762;49.998;14.858;2023-04-24T03:49:48;37.92;;;9.75;;
71888;SDS011;59762;49.998;14.858;2023-04-24T03:52:13;19.10;;;4.60;;
71888;SDS011;59762;49.998;14.858;2023-04-24T03:54:39;6.72;;;3.22;;
71888;SDS011;59762;49.998;14.858;2023-04-24T03:57:05;4.78;;;2.30;;
71888;SDS011;59762;49.998;14.858;2023-04-24T03:59:31;3.97;;;2.42;;
71888;SDS011;59762;49.998;14.858;2023-04-24T04:01:56;7.93;;;2.45;;
71888;SDS011;59762;49.998;14.858;2023-04-24T04:04:22;8.45;;;3.22;;
71888;SDS011;59762;49.998;14.858;2023-04-24T04:06:47;5.32;;;3.10;;
71888;SDS011;59762;49.998;14.858;2023-04-24T04:09:14;8.10;;;3.05;;
71888;SDS011;59762;49.998;14.858;2023-04-24T04:11:40;6.93;;;3.70;;
71888;SDS011;59762;49.998;14.858;2023-04-24T04:14:06;8.90;;;3.53;;
71888;SDS011;59762;49.998;14.858;2023-04-24T04:16:31;7.72;;;3.90;;
71888;SDS011;59762;49.998;14.858;2023-04-24T04:18:57;6.03;;;3.22;;
71888;SDS011;59762;49.998;14.858;2023-04-24T04:21:23;5.78;;;2.83;;
71888;SDS011;59762;49.998;14.858;2023-04-24T04:23:49;4.30;;;2.70;;
71888;SDS011;59762;49.998;14.858;2023-04-24T04:26:15;6.85;;;3.10;;
71888;SDS011;59762;49.998;14.858;2023-04-24T04:28:41;5.13;;;2.58;;
71888;SDS011;59762;49.998;14.858;2023-04-24T04:31:07;6.22;;;2.22;;
71888;SDS011;59762;49.998;14.858;2023-04-24T04:33:33;4.68;;;2.33;;
71888;SDS011;59762;49.998;14.858;2023-04-24T04:35:59;3.75;;;2.63;;
71888;SDS011;59762;49.998;14.858;2023-04-24T04:38:25;5.97;;;2.97;;
71888;SDS011;59762;49.998;14.858;2023-04-24T04:40:55;2.88;;;2.20;;
71888;SDS011;59762;49.998;14.858;2023-04-24T04:43:23;7.55;;;3.00;;
71888;SDS011;59762;49.998;14.858;2023-04-24T04:45:49;7.18;;;3.70;;
71888;SDS011;59762;49.998;14.858;2023-04-24T04:48:17;7.65;;;2.83;;
71888;SDS011;59762;49.998;14.858;2023-04-24T04:50:43;9.80;;;4.22;;
71888;SDS011;59762;49.998;14.858;2023-04-24T04:53:10;6.88;;;3.25;;
71888;SDS011;59762;49.998;14.858;2023-04-24T04:55:36;8.15;;;3.88;;
71888;SDS011;59762;49.998;14.858;2023-04-24T04:58:02;10.02;;;4.38;;
71888;SDS011;59762;49.998;14.858;2023-04-24T05:00:27;13.50;;;4.70;;
71888;SDS011;59762;49.998;14.858;2023-04-24T05:02:59;6.32;;;2.63;;
71888;SDS011;59762;49.998;14.858;2023-04-24T05:05:24;3.08;;;1.90;;
71888;SDS011;59762;49.998;14.858;2023-04-24T05:07:50;6.07;;;2.58;;
71888;SDS011;59762;49.998;14.858;2023-04-24T05:10:16;7.20;;;3.47;;
71888;SDS011;59762;49.998;14.858;2023-04-24T05:12:41;3.40;;;2.30;;
71888;SDS011;59762;49.998;14.858;2023-04-24T05:15:07;4.03;;;1.98;;
71888;SDS011;59762;49.998;14.858;2023-04-24T05:17:33;3.72;;;1.88;;
71888;SDS011;59762;49.998;14.858;2023-04-24T05:19:59;8.85;;;4.25;;
71888;SDS011;59762;49.998;14.858;2023-04-24T05:22:26;12.05;;;4.45;;
71888;SDS011;59762;49.998;14.858;2023-04-24T05:24:51;10.75;;;4.57;;
71888;SDS011;59762;49.998;14.858;2023-04-24T05:27:17;7.95;;;4.53;;
71888;SDS011;59762;49.998;14.858;2023-04-24T05:29:43;6.50;;;3.05;;
71888;SDS011;59762;49.998;14.858;2023-04-24T05:32:09;6.10;;;3.05;;
71888;SDS011;59762;49.998;14.858;2023-04-24T05:34:34;9.38;;;3.70;;
71888;SDS011;59762;49.998;14.858;2023-04-24T05:37:00;19.70;;;6.50;;
71888;SDS011;59762;49.998;14.858;2023-04-24T05:39:26;15.25;;;4.75;;
71888;SDS011;59762;49.998;14.858;2023-04-24T05:41:52;14.70;;;5.25;;
71888;SDS011;59762;49.998;14.858;2023-04-24T05:44:18;13.10;;;6.53;;
71888;SDS011;59762;49.998;14.858;2023-04-24T05:46:43;28.95;;;9.90;;
71888;SDS011;59762;49.998;14.858;2023-04-24T05:49:09;17.15;;;7.13;;
71888;SDS011;59762;49.998;14.858;2023-04-24T05:51:35;13.27;;;5.85;;
71888;SDS011;59762;49.998;14.858;2023-04-24T05:54:00;29.48;;;8.52;;
71888;SDS011;59762;49.998;14.858;2023-04-24T05:56:28;15.02;;;6.15;;
71888;SDS011;59762;49.998;14.858;2023-04-24T05:58:54;16.45;;;5.75;;
71888;SDS011;59762;49.998;14.858;2023-04-24T06:01:20;17.33;;;7.60;;
71888;SDS011;59762;49.998;14.858;2023-04-24T06:03:46;12.25;;;5.57;;
71888;SDS011;59762;49.998;14.858;2023-04-24T06:06:12;14.07;;;5.95;;
71888;SDS011;59762;49.998;14.858;2023-04-24T06:08:38;14.98;;;7.07;;
71888;SDS011;59762;49.998;14.858;2023-04-24T06:11:03;7.38;;;4.05;;
71888;SDS011;59762;49.998;14.858;2023-04-24T06:13:29;12.48;;;5.75;;
71888;SDS011;59762;49.998;14.858;2023-04-24T06:15:55;9.10;;;4.70;;
71888;SDS011;59762;49.998;14.858;2023-04-24T06:18:20;9.82;;;5.32;;
71888;SDS011;59762;49.998;14.858;2023-04-24T06:20:46;8.27;;;4.90;;
71888;SDS011;59762;49.998;14.858;2023-04-24T06:23:12;8.68;;;5.00;;
71888;SDS011;59762;49.998;14.858;2023-04-24T06:25:38;11.93;;;6.20;;
71888;SDS011;59762;49.998;14.858;2023-04-24T06:28:03;6.85;;;3.88;;
71888;SDS011;59762;49.998;14.858;2023-04-24T06:30:30;6.35;;;4.18;;
71888;SDS011;59762;49.998;14.858;2023-04-24T06:32:56;8.98;;;5.00;;
71888;SDS011;59762;49.998;14.858;2023-04-24T06:35:22;7.85;;;4.10;;
71888;SDS011;59762;49.998;14.858;2023-04-24T06:37:47;13.93;;;6.43;;
71888;SDS011;59762;49.998;14.858;2023-04-24T06:40:13;9.48;;;5.20;;
71888;SDS011;59762;49.998;14.858;2023-04-24T06:42:39;10.63;;;5.88;;
71888;SDS011;59762;49.998;14.858;2023-04-24T06:45:05;15.43;;;7.57;;
71888;SDS011;59762;49.998;14.858;2023-04-24T06:47:31;3.15;;;2.30;;
71888;SDS011;59762;49.998;14.858;2023-04-24T06:49:58;9.55;;;6.80;;
71888;SDS011;59762;49.998;14.858;2023-04-24T06:52:24;4.22;;;2.00;;
71888;SDS011;59762;49.998;14.858;2023-04-24T06:54:50;2.28;;;1.58;;
71888;SDS011;59762;49.998;14.858;2023-04-24T06:57:15;6.63;;;4.43;;
71888;SDS011;59762;49.998;14.858;2023-04-24T06:59:42;2.10;;;1.50;;
71888;SDS011;59762;49.998;14.858;2023-04-24T07:02:07;3.28;;;1.77;;
71888;SDS011;59762;49.998;14.858;2023-04-24T07:04:33;4.57;;;2.25;;
71888;SDS011;59762;49.998;14.858;2023-04-24T07:06:59;1.55;;;1.17;;
71888;SDS011;59762;49.998;14.858;2023-04-24T07:09:25;3.28;;;2.47;;
71888;SDS011;59762;49.998;14.858;2023-04-24T07:11:51;6.18;;;2.33;;
71888;SDS011;59762;49.998;14.858;2023-04-24T07:14:18;16.33;;;3.78;;
71888;SDS011;59762;49.998;14.858;2023-04-24T07:16:43;22.70;;;2.88;;
71888;SDS011;59762;49.998;14.858;2023-04-24T07:19:10;3.20;;;1.85;;
71888;SDS011;59762;49.998;14.858;2023-04-24T07:21:36;3.42;;;1.23;;
71888;SDS011;59762;49.998;14.858;2023-04-24T07:24:02;2.63;;;1.50;;
71888;SDS011;59762;49.998;14.858;2023-04-24T07:26:29;2.65;;;1.52;;
71888;SDS011;59762;49.998;14.858;2023-04-24T07:28:55;3.95;;;1.75;;
71888;SDS011;59762;49.998;14.858;2023-04-24T07:31:21;1.48;;;1.25;;
71888;SDS011;59762;49.998;14.858;2023-04-24T07:33:47;5.57;;;1.80;;
71888;SDS011;59762;49.998;14.858;2023-04-24T07:36:13;2.85;;;1.42;;
71888;SDS011;59762;49.998;14.858;2023-04-24T07:38:47;2.60;;;1.35;;
71888;SDS011;59762;49.998;14.858;2023-04-24T07:41:15;4.88;;;1.95;;
71888;SDS011;59762;49.998;14.858;2023-04-24T07:43:41;4.93;;;1.52;;
71888;SDS011;59762;49.998;14.858;2023-04-24T07:46:07;1.83;;;1.27;;
71888;SDS011;59762;49.998;14.858;2023-04-24T07:48:34;1.60;;;1.05;;
71888;SDS011;59762;49.998;14.858;2023-04-24T07:51:00;2.38;;;1.63;;
71888;SDS011;59762;49.998;14.858;2023-04-24T07:53:25;7.05;;;1.52;;
71888;SDS011;59762;49.998;14.858;2023-04-24T07:55:51;1.95;;;1.27;;
71888;SDS011;59762;49.998;14.858;2023-04-24T07:58:17;2.90;;;1.67;;
71888;SDS011;59762;49.998;14.858;2023-04-24T08:00:46;2.40;;;1.77;;
71888;SDS011;59762;49.998;14.858;2023-04-24T08:03:12;1.63;;;1.33;;
71888;SDS011;59762;49.998;14.858;2023-04-24T08:05:38;2.35;;;1.45;;
71888;SDS011;59762;49.998;14.858;2023-04-24T08:08:04;2.72;;;1.98;;
71888;SDS011;59762;49.998;14.858;2023-04-24T08:10:29;2.40;;;1.83;;
71888;SDS011;59762;49.998;14.858;2023-04-24T08:12:55;2.70;;;1.83;;
71888;SDS011;59762;49.998;14.858;2023-04-24T08:15:21;2.22;;;1.45;;
71888;SDS011;59762;49.998;14.858;2023-04-24T08:17:47;3.88;;;2.00;;
71888;SDS011;59762;49.998;14.858;2023-04-24T08:20:12;3.10;;;1.90;;
71888;SDS011;59762;49.998;14.858;2023-04-24T08:22:39;1.73;;;1.50;;
71888;SDS011;59762;49.998;14.858;2023-04-24T08:25:05;2.17;;;1.73;;
71888;SDS011;59762;49.998;14.858;2023-04-24T08:27:32;4.47;;;2.00;;
71888;SDS011;59762;49.998;14.858;2023-04-24T08:29:58;2.75;;;1.73;;
71888;SDS011;59762;49.998;14.858;2023-04-24T08:32:26;4.78;;;1.60;;
71888;SDS011;59762;49.998;14.858;2023-04-24T08:34:58;2.03;;;1.50;;
71888;SDS011;59762;49.998;14.858;2023-04-24T08:37:26;2.85;;;1.90;;
71888;SDS011;59762;49.998;14.858;2023-04-24T08:39:52;5.60;;;3.22;;
71888;SDS011;59762;49.998;14.858;2023-04-24T08:42:19;4.63;;;3.42;;
71888;SDS011;59762;49.998;14.858;2023-04-24T08:44:46;3.72;;;2.17;;
71888;SDS011;59762;49.998;14.858;2023-04-24T08:47:13;4.35;;;2.38;;
71888;SDS011;59762;49.998;14.858;2023-04-24T08:49:40;3.75;;;1.92;;
71888;SDS011;59762;49.998;14.858;2023-04-24T08:52:06;2.78;;;1.90;;
71888;SDS011;59762;49.998;14.858;2023-04-24T08:54:33;2.75;;;1.45;;
71888;SDS011;59762;49.998;14.858;2023-04-24T08:57:02;5.45;;;2.03;;
71888;SDS011;59762;49.998;14.858;2023-04-24T08:59:31;2.40;;;1.40;;
71888;SDS011;59762;49.998;14.858;2023-04-24T09:01:57;1.83;;;1.17;;
71888;SDS011;59762;49.998;14.858;2023-04-24T09:04:23;1.50;;;1.10;;
71888;SDS011;59762;49.998;14.858;2023-04-24T09:06:56;1.45;;;0.95;;
71888;SDS011;59762;49.998;14.858;2023-04-24T09:09:25;3.58;;;1.15;;
71888;SDS011;59762;49.998;14.858;2023-04-24T09:11:55;1.80;;;1.45;;
71888;SDS011;59762;49.998;14.858;2023-04-24T09:14:22;1.75;;;1.50;;
71888;SDS011;59762;49.998;14.858;2023-04-24T09:16:49;3.10;;;1.20;;
71888;SDS011;59762;49.998;14.858;2023-04-24T09:19:15;16.10;;;9.13;;
71888;SDS011;59762;49.998;14.858;2023-04-24T09:21:41;4.70;;;2.60;;
71888;SDS011;59762;49.998;14.858;2023-04-24T09:24:14;10.85;;;5.15;;
71888;SDS011;59762;49.998;14.858;2023-04-24T09:26:43;12.18;;;7.40;;
71888;SDS011;59762;49.998;14.858;2023-04-24T09:29:14;16.90;;;9.50;;
71888;SDS011;59762;49.998;14.858;2023-04-24T09:31:41;18.77;;;10.95;;
71888;SDS011;59762;49.998;14.858;2023-04-24T09:34:06;6.55;;;3.78;;
71888;SDS011;59762;49.998;14.858;2023-04-24T09:36:33;5.57;;;2.50;;
71888;SDS011;59762;49.998;14.858;2023-04-24T09:39:04;23.60;;;11.02;;
71888;SDS011;59762;49.998;14.858;2023-04-24T09:41:33;107.90;;;40.20;;
71888;SDS011;59762;49.998;14.858;2023-04-24T09:44:15;88.35;;;30.98;;
71888;SDS011;59762;49.998;14.858;2023-04-24T09:46:42;105.97;;;37.92;;
71888;SDS011;59762;49.998;14.858;2023-04-24T09:49:12;29.05;;;12.02;;
71888;SDS011;59762;49.998;14.858;2023-04-24T09:51:39;58.22;;;17.58;;
71888;SDS011;59762;49.998;14.858;2023-04-24T09:54:15;55.15;;;20.10;;
71888;SDS011;59762;49.998;14.858;2023-04-24T09:56:47;32.88;;;13.68;;
71888;SDS011;59762;49.998;14.858;2023-04-24T09:59:18;19.23;;;6.82;;
71888;SDS011;59762;49.998;14.858;2023-04-24T10:01:45;13.85;;;5.97;;
71888;SDS011;59762;49.998;14.858;2023-04-24T10:06:51;9.07;;;4.22;;
71888;SDS011;59762;49.998;14.858;2023-04-24T10:09:19;4.53;;;2.22;;
71888;SDS011;59762;49.998;14.858;2023-04-24T10:11:47;5.70;;;3.63;;
71888;SDS011;59762;49.998;14.858;2023-04-24T10:14:14;10.27;;;3.72;;
71888;SDS011;59762;49.998;14.858;2023-04-24T10:16:42;6.70;;;3.35;;
71888;SDS011;59762;49.998;14.858;2023-04-24T10:19:09;8.13;;;3.88;;
71888;SDS011;59762;49.998;14.858;2023-04-24T10:21:36;3.00;;;2.30;;
71888;SDS011;59762;49.998;14.858;2023-04-24T10:24:07;4.68;;;2.45;;
71888;SDS011;59762;49.998;14.858;2023-04-24T10:26:34;4.80;;;3.15;;
71888;SDS011;59762;49.998;14.858;2023-04-24T10:29:01;4.80;;;2.78;;
71888;SDS011;59762;49.998;14.858;2023-04-24T10:31:27;3.38;;;2.17;;
71888;SDS011;59762;49.998;14.858;2023-04-24T10:33:56;4.18;;;3.03;;
71888;SDS011;59762;49.998;14.858;2023-04-24T10:36:23;1.58;;;1.20;;
71888;SDS011;59762;49.998;14.858;2023-04-24T10:38:52;3.40;;;1.35;;
71888;SDS011;59762;49.998;14.858;2023-04-24T10:41:20;2.90;;;1.50;;
71888;SDS011;59762;49.998;14.858;2023-04-24T10:43:48;2.38;;;1.10;;
71888;SDS011;59762;49.998;14.858;2023-04-24T10:46:29;1.23;;;1.10;;
71888;SDS011;59762;49.998;14.858;2023-04-24T10:48:55;1.75;;;0.93;;
71888;SDS011;59762;49.998;14.858;2023-04-24T10:51:22;3.35;;;1.10;;
71888;SDS011;59762;49.998;14.858;2023-04-24T10:53:51;1.30;;;0.90;;
71888;SDS011;59762;49.998;14.858;2023-04-24T10:56:17;1.42;;;1.20;;
71888;SDS011;59762;49.998;14.858;2023-04-24T10:58:44;6.13;;;3.15;;
71888;SDS011;59762;49.998;14.858;2023-04-24T11:01:28;2.25;;;1.58;;
71888;SDS011;59762;49.998;14.858;2023-04-24T11:03:59;21.10;;;8.30;;
71888;SDS011;59762;49.998;14.858;2023-04-24T11:06:31;6.03;;;2.67;;
71888;SDS011;59762;49.998;14.858;2023-04-24T11:09:06;3.38;;;1.70;;
71888;SDS011;59762;49.998;14.858;2023-04-24T11:11:34;34.30;;;10.55;;
71888;SDS011;59762;49.998;14.858;2023-04-24T11:14:01;38.10;;;11.40;;
71888;SDS011;59762;49.998;14.858;2023-04-24T11:16:47;35.55;;;11.23;;
71888;SDS011;59762;49.998;14.858;2023-04-24T11:21:55;1.45;;;1.23;;
71888;SDS011;59762;49.998;14.858;2023-04-24T11:27:18;16.27;;;6.55;;
71888;SDS011;59762;49.998;14.858;2023-04-24T11:29:58;7.45;;;3.30;;
71888;SDS011;59762;49.998;14.858;2023-04-24T11:32:36;7.32;;;3.22;;
71888;SDS011;59762;49.998;14.858;2023-04-24T11:35:03;17.83;;;6.10;;
71888;SDS011;59762;49.998;14.858;2023-04-24T11:37:39;1.73;;;1.33;;
71888;SDS011;59762;49.998;14.858;2023-04-24T11:40:07;1.63;;;1.30;;
71888;SDS011;59762;49.998;14.858;2023-04-24T11:42:38;2.25;;;1.30;;
71888;SDS011;59762;49.998;14.858;2023-04-24T11:47:40;1.90;;;0.95;;
71888;SDS011;59762;49.998;14.858;2023-04-24T11:50:08;2.75;;;0.93;;
71888;SDS011;59762;49.998;14.858;2023-04-24T11:52:36;1.85;;;1.45;;
71888;SDS011;59762;49.998;14.858;2023-04-24T11:55:03;1.45;;;1.33;;
71888;SDS011;59762;49.998;14.858;2023-04-24T11:57:33;2.13;;;1.73;;
71888;SDS011;59762;49.998;14.858;2023-04-24T12:00:03;1.77;;;1.25;;
71888;SDS011;59762;49.998;14.858;2023-04-24T12:02:33;1.30;;;0.98;;
71888;SDS011;59762;49.998;14.858;2023-04-24T12:05:00;1.05;;;0.90;;
71888;SDS011;59762;49.998;14.858;2023-04-24T12:07:28;1.05;;;0.77;;
71888;SDS011;59762;49.998;14.858;2023-04-24T12:09:57;0.68;;;0.68;;
71888;SDS011;59762;49.998;14.858;2023-04-24T12:12:27;0.80;;;0.80;;
71888;SDS011;59762;49.998;14.858;2023-04-24T12:14:56;0.82;;;0.70;;
71888;SDS011;59762;49.998;14.858;2023-04-24T12:19:56;1.50;;;0.70;;
71888;SDS011;59762;49.998;14.858;2023-04-24T12:22:26;1.08;;;0.85;;
71888;SDS011;59762;49.998;14.858;2023-04-24T12:25:03;3.65;;;2.30;;
71888;SDS011;59762;49.998;14.858;2023-04-24T12:27:32;1.90;;;0.90;;
71888;SDS011;59762;49.998;14.858;2023-04-24T12:30:01;1.88;;;1.30;;
71888;SDS011;59762;49.998;14.858;2023-04-24T12:32:31;0.65;;;0.65;;
71888;SDS011;59762;49.998;14.858;2023-04-24T12:34:58;0.65;;;0.65;;
71888;SDS011;59762;49.998;14.858;2023-04-24T12:37:24;0.70;;;0.63;;
71888;SDS011;59762;49.998;14.858;2023-04-24T12:40:25;0.80;;;0.70;;
71888;SDS011;59762;49.998;14.858;2023-04-24T12:42:48;0.77;;;0.70;;
71888;SDS011;59762;49.998;14.858;2023-04-24T12:45:15;1.30;;;0.60;;
71888;SDS011;59762;49.998;14.858;2023-04-24T12:47:46;8.50;;;3.10;;
71888;SDS011;59762;49.998;14.858;2023-04-24T12:50:15;4.10;;;1.50;;
71888;SDS011;59762;49.998;14.858;2023-04-24T12:52:43;5.75;;;3.90;;
71888;SDS011;59762;49.998;14.858;2023-04-24T12:55:11;1.70;;;1.40;;
71888;SDS011;59762;49.998;14.858;2023-04-24T12:57:39;0.50;;;0.50;;
71888;SDS011;59762;49.998;14.858;2023-04-24T13:00:07;4.57;;;3.30;;
71888;SDS011;59762;49.998;14.858;2023-04-24T13:02:37;73.68;;;28.17;;
71888;SDS011;59762;49.998;14.858;2023-04-24T13:05:05;35.38;;;14.65;;
71888;SDS011;59762;49.998;14.858;2023-04-24T13:07:33;53.15;;;19.75;;
71888;SDS011;59762;49.998;14.858;2023-04-24T13:10:00;34.40;;;20.15;;
71888;SDS011;59762;49.998;14.858;2023-04-24T13:12:28;5.63;;;3.00;;
71888;SDS011;59762;49.998;14.858;2023-04-24T13:14:55;3.13;;;1.75;;
71888;SDS011;59762;49.998;14.858;2023-04-24T13:17:23;44.10;;;15.65;;
71888;SDS011;59762;49.998;14.858;2023-04-24T13:19:51;96.80;;;30.95;;
71888;SDS011;59762;49.998;14.858;2023-04-24T13:22:21;71.93;;;23.38;;
71888;SDS011;59762;49.998;14.858;2023-04-24T13:24:49;137.57;;;42.63;;
71888;SDS011;59762;49.998;14.858;2023-04-24T13:27:17;21.70;;;10.82;;
71888;SDS011;59762;49.998;14.858;2023-04-24T13:29:45;70.18;;;25.10;;
71888;SDS011;59762;49.998;14.858;2023-04-24T13:32:13;114.05;;;35.67;;
71888;SDS011;59762;49.998;14.858;2023-04-24T13:34:41;72.30;;;25.13;;
71888;SDS011;59762;49.998;14.858;2023-04-24T13:37:09;44.85;;;13.10;;
71888;SDS011;59762;49.998;14.858;2023-04-24T13:39:37;23.65;;;11.27;;
71888;SDS011;59762;49.998;14.858;2023-04-24T13:42:05;18.63;;;8.27;;
71888;SDS011;59762;49.998;14.858;2023-04-24T13:44:32;34.75;;;13.43;;
71888;SDS011;59762;49.998;14.858;2023-04-24T13:47:00;57.35;;;22.65;;
71888;SDS011;59762;49.998;14.858;2023-04-24T13:49:27;67.10;;;26.02;;
71888;SDS011;59762;49.998;14.858;2023-04-24T13:51:55;66.32;;;21.65;;
71888;SDS011;59762;49.998;14.858;2023-04-24T13:54:23;15.27;;;5.47;;
71888;SDS011;59762;49.998;14.858;2023-04-24T13:56:52;15.43;;;5.22;;
71888;SDS011;59762;49.998;14.858;2023-04-24T13:59:20;6.80;;;2.95;;
71888;SDS011;59762;49.998;14.858;2023-04-24T14:01:49;4.57;;;1.80;;
71888;SDS011;59762;49.998;14.858;2023-04-24T14:04:14;45.78;;;17.90;;
71888;SDS011;59762;49.998;14.858;2023-04-24T14:06:40;33.95;;;16.27;;
71888;SDS011;59762;49.998;14.858;2023-04-24T14:09:05;9.27;;;4.18;;
71888;SDS011;59762;49.998;14.858;2023-04-24T14:11:31;3.15;;;2.45;;
71888;SDS011;59762;49.998;14.858;2023-04-24T14:13:57;2.45;;;1.17;;
71888;SDS011;59762;49.998;14.858;2023-04-24T14:16:23;0.63;;;0.63;;
71888;SDS011;59762;49.998;14.858;2023-04-24T14:18:48;2.08;;;1.50;;
71888;SDS011;59762;49.998;14.858;2023-04-24T14:21:14;1.92;;;1.33;;
71888;SDS011;59762;49.998;14.858;2023-04-24T14:23:40;6.05;;;3.33;;
71888;SDS011;59762;49.998;14.858;2023-04-24T14:26:05;24.65;;;9.50;;
71888;SDS011;59762;49.998;14.858;2023-04-24T14:28:32;37.35;;;13.23;;
71888;SDS011;59762;49.998;14.858;2023-04-24T14:30:57;33.20;;;9.68;;
71888;SDS011;59762;49.998;14.858;2023-04-24T14:33:23;101.32;;;27.77;;
71888;SDS011;59762;49.998;14.858;2023-04-24T14:35:49;16.98;;;7.55;;
71888;SDS011;59762;49.998;14.858;2023-04-24T14:38:14;6.97;;;4.30;;
71888;SDS011;59762;49.998;14.858;2023-04-24T14:40:40;2.63;;;1.17;;
71888;SDS011;59762;49.998;14.858;2023-04-24T14:43:06;1.70;;;0.98;;